createdAt,value
2019-05-20T00:00:42.503Z,11.93
2019-05-20T00:03:11.629Z,12.13
2019-05-20T00:05:40.849Z,11.97
2019-05-20T00:08:12.435Z,13.47
2019-05-20T00:10:41.504Z,14.27
2019-05-20T00:13:10.615Z,13.33
2019-05-20T00:15:39.726Z,14.47
2019-05-20T00:18:08.911Z,13.53
2019-05-20T00:20:38.023Z,13.00
2019-05-20T00:23:07.145Z,14.20
2019-05-20T00:25:36.186Z,14.73
2019-05-20T00:28:05.258Z,14.40
2019-05-20T00:30:34.298Z,14.77
2019-05-20T00:33:03.363Z,14.40
2019-05-20T00:35:32.462Z,15.10
2019-05-20T00:38:01.594Z,14.10
2019-05-20T00:40:30.734Z,15.23
2019-05-20T00:42:59.867Z,14.60
2019-05-20T00:45:28.945Z,14.87
2019-05-20T00:47:58.064Z,14.83
2019-05-20T00:50:27.232Z,14.23
2019-05-20T00:52:56.427Z,14.43
2019-05-20T00:55:26.601Z,17.27
2019-05-20T00:57:55.674Z,15.87
2019-05-20T01:00:24.794Z,14.73
2019-05-20T01:02:56.758Z,15.77
2019-05-20T01:05:24.676Z,15.93
2019-05-20T01:07:53.796Z,15.00
2019-05-20T01:10:22.910Z,14.70
2019-05-20T01:12:52.011Z,15.63
2019-05-20T01:15:21.132Z,15.83
2019-05-20T01:17:50.241Z,16.87
2019-05-20T01:20:19.368Z,16.20
2019-05-20T01:22:48.447Z,16.17
2019-05-20T01:25:18.052Z,15.60
2019-05-20T01:27:47.164Z,18.53
2019-05-20T01:30:16.322Z,16.80
2019-05-20T01:32:45.422Z,17.57
2019-05-20T01:35:14.573Z,19.27
2019-05-20T01:37:43.791Z,19.20
2019-05-20T01:40:13.286Z,22.00
2019-05-20T01:42:42.353Z,23.40
2019-05-20T01:45:11.966Z,23.97
2019-05-20T01:47:41.065Z,26.40
2019-05-20T01:50:10.202Z,27.23
2019-05-20T01:52:39.321Z,26.27
2019-05-20T01:55:08.408Z,28.67
2019-05-20T01:57:37.458Z,30.87
2019-05-20T02:00:07.234Z,32.33
2019-05-20T02:02:36.309Z,33.37
2019-05-20T02:05:06.689Z,34.80
2019-05-20T02:07:35.957Z,34.87
2019-05-20T02:10:05.465Z,35.10
2019-05-20T02:12:34.922Z,35.33
2019-05-20T02:15:10.394Z,37.63
2019-05-20T02:17:39.515Z,37.07
2019-05-20T02:20:09.099Z,34.60
2019-05-20T02:22:38.321Z,35.00
2019-05-20T02:25:07.514Z,40.00
2019-05-20T02:27:36.959Z,39.27
2019-05-20T02:30:09.315Z,39.00
2019-05-20T02:32:38.521Z,38.93
2019-05-20T02:35:08.211Z,41.93
2019-05-20T02:37:37.364Z,43.10
2019-05-20T02:40:06.658Z,44.60
2019-05-20T02:42:35.967Z,48.57
2019-05-20T02:45:05.509Z,50.47
2019-05-20T02:47:34.773Z,56.77
2019-05-20T02:50:03.934Z,65.27
2019-05-20T02:52:33.128Z,70.40
2019-05-20T02:55:02.363Z,65.97
2019-05-20T02:57:31.539Z,68.23
2019-05-20T03:00:00.798Z,75.90
2019-05-20T03:02:30.133Z,79.00
2019-05-20T03:04:59.320Z,78.37
2019-05-20T03:07:28.459Z,78.47
2019-05-20T03:09:57.527Z,82.30
2019-05-20T03:12:26.885Z,90.03
2019-05-20T03:14:55.986Z,86.47
2019-05-20T03:17:25.146Z,91.07
2019-05-20T03:19:54.406Z,95.93
2019-05-20T03:22:23.600Z,93.80
2019-05-20T03:24:52.780Z,90.80
2019-05-20T03:27:21.991Z,98.13
2019-05-20T03:29:51.170Z,99.60
2019-05-20T03:32:20.375Z,95.23
2019-05-20T03:34:58.924Z,103.10
2019-05-20T03:37:20.712Z,109.73
2019-05-20T03:39:49.982Z,103.80
2019-05-20T03:42:19.365Z,111.63
2019-05-20T03:44:48.711Z,111.43
2019-05-20T03:47:18.017Z,108.57
2019-05-20T03:49:47.236Z,110.17
2019-05-20T03:52:16.421Z,117.70
2019-05-20T03:54:45.699Z,120.70
2019-05-20T03:57:15.038Z,116.23
2019-05-20T03:59:44.356Z,118.87
2019-05-20T04:02:13.561Z,114.47
2019-05-20T04:04:58.921Z,123.87
2019-05-20T04:07:13.711Z,114.53
2019-05-20T04:09:42.910Z,122.93
2019-05-20T04:12:12.076Z,124.13
2019-05-20T04:14:41.381Z,120.33
2019-05-20T04:17:10.505Z,121.20
2019-05-20T04:19:39.806Z,113.33
2019-05-20T04:22:09.100Z,123.47
2019-05-20T04:24:38.242Z,120.23
2019-05-20T04:27:07.373Z,117.50
2019-05-20T04:29:36.592Z,120.40
2019-05-20T04:32:05.757Z,123.50
2019-05-20T04:34:34.960Z,120.60
2019-05-20T04:37:04.175Z,126.77
2019-05-20T04:39:33.307Z,120.57
2019-05-20T04:42:06.322Z,130.80
2019-05-20T04:44:33.818Z,128.17
2019-05-20T04:47:02.976Z,137.10
2019-05-20T04:49:33.185Z,131.77
2019-05-20T04:52:02.362Z,126.17
2019-05-20T04:54:31.589Z,132.80
2019-05-20T04:57:00.758Z,130.83
2019-05-20T04:59:31.093Z,133.20
2019-05-20T05:02:00.346Z,137.77
2019-05-20T05:04:29.611Z,144.00
2019-05-20T05:06:58.897Z,132.43
2019-05-20T05:09:28.366Z,132.20
2019-05-20T05:11:57.812Z,138.37
2019-05-20T05:14:27.083Z,134.27
2019-05-20T05:16:56.309Z,149.27
2019-05-20T05:19:25.600Z,140.07
2019-05-20T05:21:54.745Z,131.43
2019-05-20T05:24:24.218Z,141.50
2019-05-20T05:26:53.436Z,135.73
2019-05-20T05:29:22.633Z,140.67
2019-05-20T05:31:51.880Z,138.97
2019-05-20T05:34:21.334Z,132.17
2019-05-20T05:36:50.611Z,135.87
2019-05-20T05:39:19.702Z,123.50
2019-05-20T05:41:56.149Z,125.60
2019-05-20T05:44:25.410Z,128.10
2019-05-20T05:46:54.562Z,120.53
2019-05-20T05:49:24.046Z,123.07
2019-05-20T05:51:53.417Z,126.77
2019-05-20T05:54:22.714Z,115.87
2019-05-20T05:56:51.877Z,115.67
2019-05-20T05:59:21.137Z,119.87
2019-05-20T06:01:53.891Z,117.47
2019-05-20T06:04:23.655Z,109.90
2019-05-20T06:07:18.036Z,112.47
2019-05-20T06:09:47.666Z,106.67
2019-05-20T06:12:22.836Z,101.47
2019-05-20T06:14:52.135Z,112.00
2019-05-20T06:17:21.293Z,102.37
2019-05-20T06:19:50.678Z,106.93
2019-05-20T06:22:20.020Z,106.50
2019-05-20T06:24:49.328Z,103.60
2019-05-20T06:27:18.482Z,113.93
2019-05-20T06:29:47.724Z,116.30
2019-05-20T06:32:17.035Z,117.40
2019-05-20T06:34:46.590Z,109.17
2019-05-20T06:37:17.678Z,115.23
2019-05-20T06:39:46.911Z,119.90
2019-05-20T06:42:16.275Z,111.97
2019-05-20T06:44:52.967Z,112.30
2019-05-20T06:47:20.253Z,115.57
2019-05-20T06:49:49.528Z,115.30
2019-05-20T06:52:34.968Z,114.47
2019-05-20T06:54:49.891Z,107.80
2019-05-20T06:57:19.093Z,101.33
2019-05-20T06:59:48.235Z,111.10
2019-05-20T07:02:17.334Z,105.37
2019-05-20T07:04:46.479Z,103.00
2019-05-20T07:07:21.059Z,106.73
2019-05-20T07:09:45.497Z,114.87
2019-05-20T07:12:14.608Z,121.13
2019-05-20T07:14:43.771Z,115.63
2019-05-20T07:17:12.833Z,119.33
2019-05-20T07:19:42.036Z,129.97
2019-05-20T07:22:11.228Z,121.37
2019-05-20T07:24:40.698Z,124.70
2019-05-20T07:27:11.044Z,123.40
2019-05-20T07:29:40.845Z,120.80
2019-05-20T07:32:10.003Z,129.53
2019-05-20T07:34:51.573Z,137.33
2019-05-20T07:37:30.582Z,122.23
2019-05-20T07:40:07.948Z,122.83
2019-05-20T07:42:37.166Z,119.67
2019-05-20T07:45:06.581Z,113.73
2019-05-20T07:47:35.635Z,116.67
2019-05-20T07:50:04.844Z,109.97
2019-05-20T07:52:33.979Z,108.07
2019-05-20T07:55:03.058Z,108.50
2019-05-20T07:57:34.988Z,102.60
2019-05-20T08:00:04.188Z,110.33
2019-05-20T08:02:33.837Z,108.43
2019-05-20T08:05:03.492Z,111.43
2019-05-20T08:07:50.496Z,108.10
2019-05-20T08:10:05.023Z,116.60
2019-05-20T08:12:34.419Z,117.33
2019-05-20T08:15:04.029Z,106.80
2019-05-20T08:17:33.753Z,107.87
2019-05-20T08:20:03.203Z,101.30
2019-05-20T08:22:32.942Z,95.97
2019-05-20T08:25:03.011Z,94.00
2019-05-20T08:27:32.276Z,94.63
2019-05-20T08:30:01.887Z,93.83
2019-05-20T08:32:32.252Z,90.83
2019-05-20T08:35:01.976Z,89.27
2019-05-20T08:37:44.784Z,85.07
2019-05-20T08:40:02.628Z,81.03
2019-05-20T08:42:31.845Z,91.03
2019-05-20T08:45:01.314Z,86.37
2019-05-20T08:47:30.786Z,81.53
2019-05-20T08:50:05.357Z,82.43
2019-05-20T08:52:33.930Z,75.63
2019-05-20T08:55:03.291Z,77.97
2019-05-20T08:57:32.576Z,72.60
2019-05-20T09:00:01.991Z,67.37
2019-05-20T09:02:31.917Z,65.17
2019-05-20T09:05:01.253Z,61.37
2019-05-20T09:07:30.542Z,56.90
2019-05-20T09:10:02.512Z,52.00
2019-05-20T09:12:31.757Z,46.73
2019-05-20T09:15:01.117Z,55.13
2019-05-20T09:17:30.416Z,51.73
2019-05-20T09:19:59.666Z,46.70
2019-05-20T09:22:28.880Z,49.70
2019-05-20T09:24:58.187Z,50.93
2019-05-20T09:27:27.372Z,52.10
2019-05-20T09:29:56.795Z,52.77
2019-05-20T09:32:26.095Z,54.20
2019-05-20T09:34:55.381Z,51.93
2019-05-20T09:37:24.490Z,54.30
2019-05-20T09:39:53.688Z,53.67
2019-05-20T09:42:22.997Z,50.20
2019-05-20T09:44:52.434Z,52.10
2019-05-20T09:47:21.731Z,46.73
2019-05-20T09:49:51.006Z,49.67
2019-05-20T09:52:20.447Z,47.07
2019-05-20T09:54:49.631Z,49.13
2019-05-20T09:57:18.813Z,49.07
2019-05-20T09:59:48.003Z,47.50
2019-05-20T10:02:17.488Z,50.20
2019-05-20T10:04:46.665Z,47.70
2019-05-20T10:07:15.851Z,47.80
2019-05-20T10:09:44.932Z,52.87
2019-05-20T10:12:14.222Z,51.90
2019-05-20T10:14:46.958Z,46.77
2019-05-20T10:17:37.424Z,43.73
2019-05-20T10:20:07.059Z,48.70
2019-05-20T10:22:39.215Z,50.13
2019-05-20T10:25:08.377Z,51.23
2019-05-20T10:27:37.475Z,58.63
2019-05-20T10:30:06.843Z,65.80
2019-05-20T10:32:36.055Z,80.67
2019-05-20T10:35:05.239Z,66.17
2019-05-20T10:37:34.549Z,59.77
2019-05-20T10:40:03.683Z,57.57
2019-05-20T10:42:32.790Z,49.33
2019-05-20T10:45:02.122Z,50.47
2019-05-20T10:47:42.933Z,53.30
2019-05-20T10:50:30.781Z,54.20
2019-05-20T10:56:30.729Z,55.60
2019-05-20T10:59:33.866Z,54.17
2019-05-20T11:02:01.009Z,48.13
2019-05-20T11:04:30.199Z,48.47
2019-05-20T11:06:59.558Z,46.47
2019-05-20T11:09:36.918Z,46.23
2019-05-20T11:15:09.619Z,48.20
2019-05-20T11:17:38.836Z,47.07
2019-05-20T11:20:11.136Z,50.47
2019-05-20T11:22:40.321Z,56.37
2019-05-20T11:25:09.684Z,61.17
2019-05-20T11:27:39.043Z,65.27
2019-05-20T11:30:11.953Z,65.60
2019-05-20T11:32:41.094Z,64.23
2019-05-20T11:35:10.244Z,58.50
2019-05-20T11:37:39.353Z,55.47
2019-05-20T11:40:09.854Z,63.27
2019-05-20T11:42:43.576Z,63.07
2019-05-20T11:45:14.799Z,62.07
2019-05-20T11:47:44.266Z,64.53
2019-05-20T11:50:14.255Z,56.97
2019-05-20T11:52:43.373Z,61.03
2019-05-20T11:55:12.467Z,55.60
2019-05-20T11:57:41.852Z,58.97
2019-05-20T12:00:11.253Z,62.23
2019-05-20T12:02:40.359Z,57.93
2019-05-20T12:05:09.621Z,57.40
2019-05-20T12:07:41.314Z,57.17
2019-05-20T12:10:11.769Z,56.93
2019-05-20T12:12:40.842Z,57.70
2019-05-20T12:15:13.092Z,57.30
2019-05-20T12:17:42.167Z,55.73
2019-05-20T12:20:12.747Z,62.40
2019-05-20T12:22:42.167Z,62.97
2019-05-20T12:25:11.200Z,64.73
2019-05-20T12:27:40.367Z,69.53
2019-05-20T12:30:09.661Z,73.03
2019-05-20T12:32:38.986Z,78.57
2019-05-20T12:35:09.105Z,69.30
2019-05-20T12:37:38.768Z,72.47
2019-05-20T12:40:18.133Z,75.27
2019-05-20T12:42:47.745Z,72.20
2019-05-20T12:45:17.662Z,70.23
2019-05-20T12:47:46.779Z,65.43
2019-05-20T12:50:16.118Z,69.87
2019-05-20T12:52:45.210Z,69.83
2019-05-20T12:55:14.563Z,70.00
2019-05-20T12:57:43.632Z,79.03
2019-05-20T13:00:12.727Z,83.77
2019-05-20T13:02:41.998Z,87.40
2019-05-20T13:05:11.537Z,83.50
2019-05-20T13:07:40.692Z,80.10
2019-05-20T13:10:26.539Z,90.33
2019-05-20T13:12:40.648Z,83.17
2019-05-20T13:15:09.795Z,81.70
2019-05-20T13:17:43.814Z,84.03
2019-05-20T13:20:09.887Z,87.53
2019-05-20T13:22:38.996Z,83.70
2019-05-20T13:25:10.999Z,81.53
2019-05-20T13:27:40.072Z,81.30
2019-05-20T13:30:09.443Z,79.27
2019-05-20T13:32:38.591Z,86.80
2019-05-20T13:35:07.734Z,81.07
2019-05-20T13:37:36.836Z,78.00
2019-05-20T13:40:06.224Z,81.97
2019-05-20T13:42:35.291Z,86.27
2019-05-20T13:45:04.442Z,81.57
2019-05-20T13:47:33.549Z,86.00
2019-05-20T13:50:02.691Z,80.47
2019-05-20T13:52:31.825Z,80.07
2019-05-20T13:55:01.034Z,78.33
2019-05-20T13:57:30.210Z,81.03
2019-05-20T13:59:59.467Z,82.47
2019-05-20T14:02:28.571Z,78.50
2019-05-20T14:04:57.686Z,78.20
2019-05-20T14:07:26.875Z,77.10
2019-05-20T14:09:56.033Z,76.50
2019-05-20T14:12:25.120Z,75.00
2019-05-20T14:14:54.226Z,75.13
2019-05-20T14:17:23.262Z,76.20
2019-05-20T14:19:52.384Z,67.63
2019-05-20T14:22:21.463Z,67.17
2019-05-20T14:24:50.866Z,67.73
2019-05-20T14:27:19.998Z,63.60
2019-05-20T14:29:49.094Z,64.23
2019-05-20T14:32:18.262Z,61.47
2019-05-20T14:34:47.463Z,62.67
2019-05-20T14:37:16.587Z,64.63
2019-05-20T14:39:45.820Z,65.23
2019-05-20T14:42:15.117Z,62.40
2019-05-20T14:44:44.340Z,56.77
2019-05-20T14:47:13.358Z,59.50
2019-05-20T14:49:42.460Z,63.93
2019-05-20T14:52:11.503Z,59.40
2019-05-20T14:54:40.555Z,62.97
2019-05-20T14:57:09.953Z,63.17
2019-05-20T14:59:39.070Z,63.20
2019-05-20T15:02:08.174Z,61.67
2019-05-20T15:04:37.318Z,63.50
2019-05-20T15:07:06.474Z,59.00
2019-05-20T15:09:35.597Z,62.40
2019-05-20T15:12:04.735Z,66.20
2019-05-20T15:14:34.106Z,65.53
2019-05-20T15:17:03.237Z,67.17
2019-05-20T15:19:32.349Z,66.90
2019-05-20T15:22:01.469Z,64.23
2019-05-20T15:24:30.641Z,61.90
2019-05-20T15:26:59.830Z,68.53
2019-05-20T15:29:29.083Z,64.63
2019-05-20T15:31:58.359Z,64.70
2019-05-20T15:34:27.451Z,68.13
2019-05-20T15:36:56.583Z,66.37
2019-05-20T15:39:26.023Z,66.67
2019-05-20T15:41:55.162Z,71.47
2019-05-20T15:44:24.181Z,70.93
2019-05-20T15:46:53.339Z,72.20
2019-05-20T15:49:23.089Z,70.80
2019-05-20T15:51:52.224Z,68.90
2019-05-20T15:54:21.521Z,63.10
2019-05-20T15:56:50.580Z,65.93
2019-05-20T15:59:19.806Z,69.63
2019-05-20T16:01:53.851Z,68.23
2019-05-20T16:04:22.571Z,66.70
2019-05-20T16:06:51.701Z,63.00
2019-05-20T16:09:20.864Z,61.60
2019-05-20T16:11:50.068Z,65.20
2019-05-20T16:14:19.382Z,55.50
2019-05-20T16:16:48.560Z,58.13
2019-05-20T16:19:17.703Z,57.43
2019-05-20T16:21:47.977Z,73.30
2019-05-20T16:24:17.918Z,57.80
2019-05-20T16:26:47.398Z,54.47
2019-05-20T16:29:16.524Z,51.80
2019-05-20T16:31:45.750Z,57.90
2019-05-20T16:34:14.906Z,60.87
2019-05-20T16:36:43.971Z,55.20
2019-05-20T16:39:13.107Z,60.83
2019-05-20T16:41:42.240Z,56.63
2019-05-20T16:44:11.387Z,56.07
2019-05-20T16:46:40.487Z,55.93
2019-05-20T16:49:09.594Z,56.80
2019-05-20T16:51:38.687Z,60.23
2019-05-20T16:54:07.819Z,55.23
2019-05-20T16:56:36.869Z,50.50
2019-05-20T16:59:05.949Z,50.97
2019-05-20T17:01:45.967Z,54.27
2019-05-20T17:04:05.903Z,54.83
2019-05-20T17:06:35.028Z,57.00
2019-05-20T17:09:04.581Z,56.30
2019-05-20T17:11:33.717Z,53.17
2019-05-20T17:14:03.066Z,59.63
2019-05-20T17:16:32.368Z,61.00
2019-05-20T17:19:01.619Z,58.80
2019-05-20T17:21:31.196Z,57.07
2019-05-20T17:24:01.597Z,55.50
2019-05-20T17:26:30.826Z,55.13
2019-05-20T17:29:00.129Z,54.40
2019-05-20T17:31:30.963Z,55.17
2019-05-20T17:34:00.190Z,53.00
2019-05-20T17:36:29.296Z,51.63
2019-05-20T17:38:58.782Z,54.03
2019-05-20T17:41:27.920Z,51.20
2019-05-20T17:43:57.089Z,59.27
2019-05-20T17:46:26.382Z,58.03
2019-05-20T17:48:55.527Z,52.03
2019-05-20T17:51:24.659Z,53.37
2019-05-20T17:53:53.799Z,54.83
2019-05-20T17:56:22.994Z,54.53
2019-05-20T17:58:52.119Z,53.40
2019-05-20T18:01:21.359Z,52.80
2019-05-20T18:06:51.489Z,51.90
2019-05-20T18:09:21.311Z,53.03
2019-05-20T18:11:53.237Z,52.10
2019-05-20T18:14:22.713Z,47.23
2019-05-20T18:16:52.189Z,49.57
2019-05-20T18:19:22.076Z,52.00
2019-05-20T18:21:51.688Z,49.60
2019-05-20T18:24:20.804Z,51.27
2019-05-20T18:26:49.971Z,50.97
2019-05-20T18:29:19.178Z,47.53
2019-05-20T18:31:48.339Z,51.80
2019-05-20T18:34:17.485Z,49.47
2019-05-20T18:36:46.714Z,50.60
2019-05-20T18:39:15.937Z,45.80
2019-05-20T18:41:46.093Z,47.23
2019-05-20T18:44:15.230Z,49.77
2019-05-20T18:46:44.461Z,48.40
2019-05-20T18:49:14.900Z,46.70
2019-05-20T18:51:44.461Z,48.83
2019-05-20T18:54:55.005Z,48.00
2019-05-20T19:00:31.295Z,48.70
2019-05-20T19:03:09.509Z,46.80
2019-05-20T19:05:38.961Z,49.53
2019-05-20T19:08:08.428Z,48.77
2019-05-20T19:10:37.925Z,46.90
2019-05-20T19:13:07.270Z,48.17
2019-05-20T19:15:36.561Z,48.67
2019-05-20T19:18:05.754Z,46.43
2019-05-20T19:20:34.952Z,46.00
2019-05-20T19:23:04.123Z,50.13
2019-05-20T19:25:37.725Z,46.63
2019-05-20T19:28:04.255Z,56.93
2019-05-20T19:30:33.604Z,48.87
2019-05-20T19:33:02.678Z,45.63
2019-05-20T19:35:31.824Z,50.47
2019-05-20T19:38:00.931Z,49.90
2019-05-20T19:40:30.016Z,50.07
2019-05-20T19:42:59.264Z,45.33
2019-05-20T19:45:28.422Z,41.63
2019-05-20T19:47:57.537Z,42.07
2019-05-20T19:50:26.717Z,43.77
2019-05-20T19:52:55.959Z,43.00
2019-05-20T19:55:25.152Z,48.23
2019-05-20T19:57:54.238Z,47.07
2019-05-20T20:00:23.387Z,48.33
2019-05-20T20:02:52.451Z,44.40
2019-05-20T20:05:21.548Z,46.97
2019-05-20T20:07:50.643Z,48.20
2019-05-20T20:10:19.875Z,47.67
2019-05-20T20:12:48.956Z,47.23
2019-05-20T20:15:19.021Z,48.07
2019-05-20T20:17:48.069Z,46.10
2019-05-20T20:20:17.168Z,49.10
2019-05-20T20:22:46.225Z,49.57
2019-05-20T20:25:15.343Z,49.37
2019-05-20T20:27:44.449Z,53.20
2019-05-20T20:30:13.550Z,46.27
2019-05-20T20:32:42.607Z,51.97
2019-05-20T20:35:11.718Z,52.20
2019-05-20T20:37:40.747Z,52.53
2019-05-20T20:40:09.819Z,51.93
2019-05-20T20:42:38.913Z,50.23
2019-05-20T20:45:08.015Z,50.87
2019-05-20T20:47:41.725Z,55.57
2019-05-20T20:50:08.004Z,55.23
2019-05-20T20:52:37.151Z,59.97
2019-05-20T20:55:06.334Z,59.17
2019-05-20T20:57:35.565Z,62.43
2019-05-20T21:00:05.435Z,62.13
2019-05-20T21:02:34.504Z,58.07
2019-05-20T21:05:03.605Z,61.43
2019-05-20T21:07:32.775Z,67.27
2019-05-20T21:10:01.862Z,65.83
2019-05-20T21:12:30.947Z,63.93
2019-05-20T21:15:00.028Z,64.77
2019-05-20T21:17:29.096Z,64.83
2019-05-20T21:19:58.252Z,66.90
2019-05-20T21:22:27.352Z,65.50
2019-05-20T21:24:56.368Z,59.40
2019-05-20T21:27:25.518Z,65.87
2019-05-20T21:29:54.608Z,69.83
2019-05-20T21:32:23.681Z,69.60
2019-05-20T21:34:52.756Z,69.90
2019-05-20T21:37:21.958Z,74.40
2019-05-20T21:39:50.978Z,76.43
2019-05-20T21:42:20.092Z,76.87
2019-05-20T21:44:49.184Z,82.00
2019-05-20T21:47:18.268Z,79.30
2019-05-20T21:49:47.460Z,78.20
2019-05-20T21:52:16.557Z,80.70
2019-05-20T21:54:45.642Z,78.63
2019-05-20T21:57:14.730Z,85.30
2019-05-20T21:59:43.829Z,81.63
2019-05-20T22:02:12.911Z,86.73
2019-05-20T22:04:41.982Z,86.17
2019-05-20T22:07:11.087Z,81.57
2019-05-20T22:09:40.141Z,102.77
2019-05-20T22:12:22.618Z,101.13
2019-05-20T22:14:52.125Z,100.90
2019-05-20T22:17:21.227Z,114.10
2019-05-20T22:19:50.311Z,107.43
2019-05-20T22:22:28.604Z,106.70
2019-05-20T22:24:57.705Z,117.93
2019-05-20T22:27:26.819Z,106.97
2019-05-20T22:29:55.845Z,101.10
2019-05-20T22:32:25.000Z,99.80
2019-05-20T22:34:54.158Z,101.57
2019-05-20T22:37:23.248Z,101.90
2019-05-20T22:39:52.326Z,98.47
2019-05-20T22:42:21.406Z,100.30
2019-05-20T22:44:50.475Z,94.27
2019-05-20T22:47:19.643Z,92.60
2019-05-20T22:49:48.731Z,93.43
2019-05-20T22:52:17.806Z,94.90
2019-05-20T22:54:46.888Z,91.17
2019-05-20T22:57:15.939Z,97.00
2019-05-20T22:59:45.061Z,103.93
2019-05-20T23:02:14.183Z,104.40
2019-05-20T23:04:44.090Z,103.37
2019-05-20T23:07:13.151Z,101.43
2019-05-20T23:09:42.326Z,97.37
2019-05-20T23:12:11.384Z,96.30
2019-05-20T23:14:40.544Z,94.30
2019-05-20T23:17:09.591Z,80.73
2019-05-20T23:19:38.692Z,75.10
2019-05-20T23:22:07.759Z,63.03
2019-05-20T23:24:36.832Z,61.60
2019-05-20T23:27:05.927Z,57.80
2019-05-20T23:29:35.020Z,55.50
2019-05-20T23:32:04.107Z,51.20
2019-05-20T23:34:33.213Z,47.77
2019-05-20T23:37:02.292Z,48.07
2019-05-20T23:39:31.385Z,41.53
2019-05-20T23:42:00.459Z,36.93
2019-05-20T23:44:29.533Z,36.23
2019-05-20T23:46:58.570Z,35.13
2019-05-20T23:49:27.659Z,29.50
2019-05-20T23:51:56.719Z,28.27
2019-05-20T23:54:25.799Z,24.43
2019-05-20T23:56:54.913Z,23.17
2019-05-20T23:59:23.989Z,22.80
